createdAt,value
2018-06-02T00:00:02.644Z,100567.62
2018-06-02T00:02:35.184Z,100566.22
2018-06-02T00:05:07.695Z,100557.44
2018-06-02T00:07:40.233Z,100555.53
2018-06-02T00:10:12.748Z,100557.48
2018-06-02T00:12:45.290Z,100558.98
2018-06-02T00:15:19.472Z,100563.66
2018-06-02T00:17:52.001Z,100567.38
2018-06-02T00:20:24.519Z,100567.47
2018-06-02T00:22:57.051Z,100573.73
2018-06-02T00:25:29.565Z,100572.79
2018-06-02T00:28:02.104Z,100581.56
2018-06-02T00:30:34.617Z,100574.35
2018-06-02T00:33:07.148Z,100569.05
2018-06-02T00:35:39.670Z,100560.36
2018-06-02T00:38:12.212Z,100564.09
2018-06-02T00:40:44.723Z,100566.63
2018-06-02T00:43:17.247Z,100572.16
2018-06-02T00:45:50.295Z,100569.75
2018-06-02T00:48:22.828Z,100571.59
2018-06-02T00:50:55.335Z,100567.28
2018-06-02T00:53:27.886Z,100574.97
2018-06-02T00:56:00.399Z,100582.81
2018-06-02T00:58:32.934Z,100575.94
2018-06-02T01:01:05.441Z,100580.35
2018-06-02T01:03:37.969Z,100578.59
2018-06-02T01:06:10.481Z,100577.88
2018-06-02T01:08:43.014Z,100588.25
2018-06-02T01:11:15.524Z,100581.89
2018-06-02T01:13:48.049Z,100573.47
2018-06-02T01:16:20.604Z,100569.06
2018-06-02T01:18:53.111Z,100570.70
2018-06-02T01:21:25.640Z,100574.23
2018-06-02T01:23:58.160Z,100565.27
2018-06-02T01:26:30.686Z,100566.02
2018-06-02T01:29:03.201Z,100580.31
2018-06-02T01:31:35.720Z,100584.26
2018-06-02T01:34:08.228Z,100583.09
2018-06-02T01:36:40.751Z,100588.28
2018-06-02T01:39:13.261Z,100592.34
2018-06-02T01:41:45.794Z,100588.91
2018-06-02T01:44:18.800Z,100591.09
2018-06-02T01:46:51.340Z,100590.16
2018-06-02T01:49:23.853Z,100590.11
2018-06-02T01:51:56.400Z,100583.98
2018-06-02T01:54:28.925Z,100581.91
2018-06-02T01:57:01.448Z,100582.73
2018-06-02T01:59:33.955Z,100578.61
2018-06-02T02:02:06.490Z,100573.06
2018-06-02T02:04:38.991Z,100579.02
2018-06-02T02:07:11.516Z,100569.53
2018-06-02T02:09:44.024Z,100572.87
2018-06-02T02:12:16.560Z,100571.66
2018-06-02T02:14:49.071Z,100576.84
2018-06-02T02:17:21.619Z,100576.02
2018-06-02T02:19:54.133Z,100577.26
2018-06-02T02:22:26.672Z,100581.55
2018-06-02T02:24:59.184Z,100583.31
2018-06-02T02:27:31.720Z,100582.20
2018-06-02T02:30:04.233Z,100584.27
2018-06-02T02:32:36.792Z,100583.08
2018-06-02T02:35:09.296Z,100583.10
2018-06-02T02:37:41.828Z,100583.16
2018-06-02T02:40:14.345Z,100584.98
2018-06-02T02:42:46.876Z,100584.62
2018-06-02T02:45:20.234Z,100585.98
2018-06-02T02:47:52.767Z,100591.49
2018-06-02T02:50:25.273Z,100593.69
2018-06-02T02:52:57.800Z,100590.61
2018-06-02T02:55:30.324Z,100590.33
2018-06-02T02:58:02.867Z,100590.40
2018-06-02T03:00:35.383Z,100596.63
2018-06-02T03:03:07.915Z,100594.99
2018-06-02T03:05:40.415Z,100604.17
2018-06-02T03:08:12.942Z,100609.08
2018-06-02T03:10:45.448Z,100611.56
2018-06-02T03:13:17.995Z,100610.79
2018-06-02T03:15:50.505Z,100614.09
2018-06-02T03:18:23.035Z,100613.85
2018-06-02T03:20:55.555Z,100620.94
2018-06-02T03:23:28.113Z,100626.64
2018-06-02T03:26:00.632Z,100627.84
2018-06-02T03:28:33.163Z,100622.73
2018-06-02T03:31:05.676Z,100621.42
2018-06-02T03:33:38.203Z,100621.94
2018-06-02T03:36:10.723Z,100628.96
2018-06-02T03:38:43.267Z,100623.59
2018-06-02T03:41:15.779Z,100631.25
2018-06-02T03:43:48.920Z,100638.08
2018-06-02T03:46:21.439Z,100639.53
2018-06-02T03:48:53.972Z,100644.95
2018-06-02T03:51:26.496Z,100647.30
2018-06-02T03:53:59.044Z,100642.28
2018-06-02T03:56:31.556Z,100640.22
2018-06-02T03:59:04.104Z,100638.02
2018-06-02T04:01:36.612Z,100638.25
2018-06-02T04:04:09.143Z,100641.02
2018-06-02T04:06:41.649Z,100642.73
2018-06-02T04:09:14.181Z,100640.97
2018-06-02T04:11:46.734Z,100638.55
2018-06-02T04:14:19.539Z,100641.66
2018-06-02T04:16:52.047Z,100645.26
2018-06-02T04:19:24.605Z,100648.33
2018-06-02T04:21:57.119Z,100655.70
2018-06-02T04:24:29.651Z,100650.06
2018-06-02T04:27:02.152Z,100650.78
2018-06-02T04:29:34.687Z,100653.41
2018-06-02T04:32:07.203Z,100653.30
2018-06-02T04:34:39.745Z,100653.27
2018-06-02T04:37:12.273Z,100650.42
2018-06-02T04:39:44.819Z,100656.33
2018-06-02T04:42:17.341Z,100656.49
2018-06-02T04:44:50.743Z,100659.53
2018-06-02T04:47:23.252Z,100658.94
2018-06-02T04:49:55.794Z,100661.50
2018-06-02T04:52:28.309Z,100663.81
2018-06-02T04:55:00.847Z,100656.69
2018-06-02T04:57:33.361Z,100661.77
2018-06-02T05:00:05.909Z,100661.20
2018-06-02T05:02:38.435Z,100666.59
2018-06-02T05:05:10.984Z,100664.39
2018-06-02T05:07:43.531Z,100674.73
2018-06-02T05:10:16.058Z,100670.94
2018-06-02T05:12:49.700Z,100668.39
2018-06-02T05:15:22.217Z,100671.48
2018-06-02T05:17:54.757Z,100669.77
2018-06-02T05:20:27.269Z,100674.77
2018-06-02T05:22:59.796Z,100675.34
2018-06-02T05:25:32.313Z,100681.63
2018-06-02T05:28:04.847Z,100683.48
2018-06-02T05:30:37.356Z,100681.02
2018-06-02T05:33:09.883Z,100686.73
2018-06-02T05:35:42.395Z,100689.14
2018-06-02T05:38:14.921Z,100686.66
2018-06-02T05:40:47.432Z,100690.59
2018-06-02T05:43:20.841Z,100692.52
2018-06-02T05:45:53.368Z,100691.01
2018-06-02T05:48:25.898Z,100691.22
2018-06-02T05:50:58.416Z,100692.28
2018-06-02T05:53:30.944Z,100683.52
2018-06-02T05:56:03.452Z,100686.55
2018-06-02T05:58:35.977Z,100689.70
2018-06-02T06:01:08.476Z,100690.34
2018-06-02T06:03:41.004Z,100683.81
2018-06-02T06:06:13.532Z,100687.11
2018-06-02T06:08:46.051Z,100691.83
2018-06-02T06:11:19.721Z,100693.67
2018-06-02T06:13:52.243Z,100689.41
2018-06-02T06:16:24.769Z,100692.36
2018-06-02T06:18:57.308Z,100694.02
2018-06-02T06:21:29.840Z,100699.20
2018-06-02T06:24:02.376Z,100702.93
2018-06-02T06:26:34.888Z,100701.80
2018-06-02T06:29:07.423Z,100703.88
2018-06-02T06:31:39.952Z,100699.14
2018-06-02T06:34:12.528Z,100698.72
2018-06-02T06:36:45.037Z,100704.39
2018-06-02T06:39:17.565Z,100697.57
2018-06-02T06:41:50.436Z,100700.63
2018-06-02T06:44:22.990Z,100701.92
2018-06-02T06:46:55.495Z,100708.59
2018-06-02T06:49:28.030Z,100707.00
2018-06-02T06:52:00.545Z,100711.36
2018-06-02T06:54:33.374Z,100715.20
2018-06-02T06:57:05.892Z,100712.02
2018-06-02T06:59:38.437Z,100718.33
2018-06-02T07:02:10.962Z,100714.06
2018-06-02T07:04:43.512Z,100713.34
2018-06-02T07:07:16.019Z,100718.53
2018-06-02T07:09:49.404Z,100724.84
2018-06-02T07:12:21.915Z,100722.03
2018-06-02T07:14:54.445Z,100728.28
2018-06-02T07:17:26.973Z,100728.77
2018-06-02T07:19:59.508Z,100733.02
2018-06-02T07:22:32.026Z,100738.48
2018-06-02T07:25:04.553Z,100741.17
2018-06-02T07:27:37.079Z,100742.34
2018-06-02T07:30:09.645Z,100746.30
2018-06-02T07:32:42.168Z,100742.59
2018-06-02T07:35:14.718Z,100747.86
2018-06-02T07:37:47.241Z,100753.12
2018-06-02T07:40:20.305Z,100751.23
2018-06-02T07:42:52.859Z,100756.92
2018-06-02T07:45:25.396Z,100759.14
2018-06-02T07:47:57.904Z,100762.77
2018-06-02T07:50:30.439Z,100760.40
2018-06-02T07:53:02.947Z,100761.76
2018-06-02T07:55:35.497Z,100754.79
2018-06-02T07:58:08.038Z,100755.32
2018-06-02T08:00:40.576Z,100751.69
2018-06-02T08:03:13.078Z,100753.44
2018-06-02T08:05:45.616Z,100754.33
2018-06-02T08:08:18.133Z,100754.33
2018-06-02T08:10:51.501Z,100755.84
2018-06-02T08:13:24.017Z,100758.86
2018-06-02T08:15:56.553Z,100760.84
2018-06-02T08:18:29.067Z,100764.80
2018-06-02T08:21:01.609Z,100765.21
2018-06-02T08:23:34.116Z,100764.68
2018-06-02T08:26:06.649Z,100762.49
2018-06-02T08:28:39.192Z,100768.06
2018-06-02T08:31:11.733Z,100770.34
2018-06-02T08:33:44.277Z,100766.94
2018-06-02T08:36:16.792Z,100770.31
2018-06-02T08:38:50.233Z,100773.59
2018-06-02T08:41:22.756Z,100778.85
2018-06-02T08:43:55.283Z,100784.73
2018-06-02T08:46:27.806Z,100785.61
2018-06-02T08:49:00.333Z,100788.59
2018-06-02T08:51:32.854Z,100792.16
2018-06-02T08:54:05.403Z,100794.70
2018-06-02T08:56:37.923Z,100788.20
2018-06-02T08:59:10.452Z,100790.67
2018-06-02T09:01:42.997Z,100789.48
2018-06-02T09:04:15.538Z,100788.02
2018-06-02T09:06:48.097Z,100790.10
2018-06-02T09:09:20.644Z,100790.52
2018-06-02T09:11:53.167Z,100793.89
2018-06-02T09:14:25.709Z,100798.54
2018-06-02T09:16:58.225Z,100795.14
2018-06-02T09:19:30.759Z,100796.48
2018-06-02T09:22:03.832Z,100804.62
2018-06-02T09:24:36.407Z,100798.65
2018-06-02T09:27:08.913Z,100798.65
2018-06-02T09:29:41.440Z,100795.27
2018-06-02T09:32:13.955Z,100800.91
2018-06-02T09:34:46.495Z,100788.88
2018-06-02T09:37:19.357Z,100791.64
2018-06-02T09:39:51.890Z,100794.30
2018-06-02T09:42:24.406Z,100794.49
2018-06-02T09:44:56.943Z,100790.04
2018-06-02T09:47:29.479Z,100790.12
2018-06-02T09:50:02.008Z,100794.61
2018-06-02T09:52:34.534Z,100787.08
2018-06-02T09:55:07.083Z,100797.54
2018-06-02T09:57:39.631Z,100799.53
2018-06-02T10:00:12.184Z,100796.10
2018-06-02T10:02:44.705Z,100799.28
2018-06-02T10:05:17.234Z,100801.88
2018-06-02T10:07:50.611Z,100810.46
2018-06-02T10:10:23.140Z,100812.37
2018-06-02T10:12:55.655Z,100815.45
2018-06-02T10:15:28.189Z,100813.23
2018-06-02T10:18:00.700Z,100816.85
2018-06-02T10:20:33.239Z,100819.76
2018-06-02T10:23:05.752Z,100818.44
2018-06-02T10:25:38.276Z,100818.54
2018-06-02T10:28:10.793Z,100811.28
2018-06-02T10:30:43.332Z,100818.47
2018-06-02T10:33:15.852Z,100818.87
2018-06-02T10:35:49.150Z,100817.95
2018-06-02T10:38:21.659Z,100818.75
2018-06-02T10:40:54.200Z,100824.86
2018-06-02T10:43:26.731Z,100825.91
2018-06-02T10:45:59.259Z,100837.11
2018-06-02T10:48:31.778Z,100836.58
2018-06-02T10:51:04.332Z,100841.02
2018-06-02T10:53:36.850Z,100844.73
2018-06-02T10:56:09.389Z,100842.16
2018-06-02T10:58:41.918Z,100845.25
2018-06-02T11:01:14.451Z,100840.66
2018-06-02T11:03:46.952Z,100846.81
2018-06-02T11:06:20.207Z,100844.52
2018-06-02T11:08:52.717Z,100842.33
2018-06-02T11:11:25.257Z,100845.96
2018-06-02T11:13:57.770Z,100841.50
2018-06-02T11:16:30.309Z,100845.92
2018-06-02T11:19:02.820Z,100833.31
2018-06-02T11:21:35.356Z,100838.02
2018-06-02T11:24:07.870Z,100837.57
2018-06-02T11:26:40.402Z,100838.16
2018-06-02T11:29:12.912Z,100836.91
2018-06-02T11:31:45.447Z,100840.41
2018-06-02T11:34:17.990Z,100836.38
2018-06-02T11:36:50.527Z,100833.66
2018-06-02T11:39:23.045Z,100832.36
2018-06-02T11:41:55.586Z,100835.55
2018-06-02T11:44:28.096Z,100834.78
2018-06-02T11:47:00.635Z,100835.55
2018-06-02T11:49:33.144Z,100836.97
2018-06-02T11:52:05.683Z,100838.78
2018-06-02T11:54:38.201Z,100836.30
2018-06-02T11:57:10.731Z,100837.13
2018-06-02T11:59:43.321Z,100836.32
2018-06-02T12:02:15.826Z,100835.88
2018-06-02T12:04:49.031Z,100835.08
2018-06-02T12:07:21.549Z,100838.54
2018-06-02T12:09:54.092Z,100837.05
2018-06-02T12:12:26.614Z,100833.19
2018-06-02T12:14:59.320Z,100838.52
2018-06-02T12:17:31.940Z,100840.02
2018-06-02T12:20:04.473Z,100842.69
2018-06-02T12:22:37.204Z,100839.75
2018-06-02T12:25:09.735Z,100843.87
2018-06-02T12:27:42.255Z,100843.62
2018-06-02T12:30:14.807Z,100839.77
2018-06-02T12:32:47.327Z,100837.41
2018-06-02T12:35:20.699Z,100842.39
2018-06-02T12:37:53.223Z,100840.87
2018-06-02T12:40:25.778Z,100844.20
2018-06-02T12:42:58.288Z,100834.27
2018-06-02T12:45:30.824Z,100845.11
2018-06-02T12:48:03.330Z,100830.95
2018-06-02T12:50:35.861Z,100838.70
2018-06-02T12:53:08.774Z,100837.95
2018-06-02T12:55:41.737Z,100842.59
2018-06-02T12:58:16.905Z,100834.09
2018-06-02T13:00:51.468Z,100846.63
2018-06-02T13:03:25.268Z,100840.97
2018-06-02T13:05:58.356Z,100848.56
2018-06-02T13:08:31.619Z,100844.72
2018-06-02T13:11:04.734Z,100843.54
2018-06-02T13:13:37.635Z,100848.34
2018-06-02T13:16:11.609Z,100846.65
2018-06-02T13:18:44.495Z,100840.94
2018-06-02T13:21:17.433Z,100846.63
2018-06-02T13:23:51.765Z,100853.34
2018-06-02T13:26:24.645Z,100858.23
2018-06-02T13:28:58.515Z,100850.00
2018-06-02T13:31:31.923Z,100846.75
2018-06-02T13:34:05.032Z,100849.98
2018-06-02T13:36:37.957Z,100851.02
2018-06-02T13:39:11.479Z,100837.98
2018-06-02T13:41:45.412Z,100844.14
2018-06-02T13:44:19.656Z,100846.20
2018-06-02T13:46:52.510Z,100844.15
2018-06-02T13:49:25.337Z,100840.08
2018-06-02T13:51:58.351Z,100830.32
2018-06-02T13:54:31.401Z,100841.84
2018-06-02T13:57:04.272Z,100842.88
2018-06-02T13:59:37.332Z,100841.50
2018-06-02T14:02:10.229Z,100848.30
2018-06-02T14:04:43.203Z,100849.50
2018-06-02T14:07:16.301Z,100849.70
2018-06-02T14:09:49.324Z,100852.73
2018-06-02T14:12:22.308Z,100851.70
2018-06-02T14:14:55.359Z,100853.62
2018-06-02T14:17:29.305Z,100849.69
2018-06-02T14:20:02.163Z,100851.70
2018-06-02T14:22:35.269Z,100844.23
2018-06-02T14:25:08.105Z,100846.06
2018-06-02T14:27:40.976Z,100847.21
2018-06-02T14:30:13.847Z,100845.09
2018-06-02T14:32:46.903Z,100853.47
2018-06-02T14:35:20.579Z,100850.66
2018-06-02T14:37:54.956Z,100854.21
2018-06-02T14:40:27.825Z,100846.39
2018-06-02T14:43:01.768Z,100844.38
2018-06-02T14:45:35.045Z,100843.37
2018-06-02T14:48:08.082Z,100843.00
2018-06-02T14:50:40.906Z,100845.77
2018-06-02T14:53:13.921Z,100840.40
2018-06-02T14:55:46.778Z,100846.65
2018-06-02T14:58:20.452Z,100843.42
2018-06-02T15:00:53.252Z,100844.52
2018-06-02T15:03:26.080Z,100838.69
2018-06-02T15:05:58.944Z,100839.36
2018-06-02T15:08:31.723Z,100840.08
2018-06-02T15:11:04.653Z,100838.42
2018-06-02T15:13:38.158Z,100838.25
2018-06-02T15:16:10.967Z,100833.84
2018-06-02T15:18:43.530Z,100836.09
2018-06-02T15:21:16.062Z,100832.06
2018-06-02T15:23:49.164Z,100840.40
2018-06-02T15:26:21.702Z,100838.08
2018-06-02T15:28:54.220Z,100843.29
2018-06-02T15:31:26.742Z,100843.16
2018-06-02T15:33:59.261Z,100848.95
2018-06-02T15:36:31.811Z,100848.20
2018-06-02T15:39:05.063Z,100851.75
2018-06-02T15:41:37.594Z,100855.88
2018-06-02T15:44:10.107Z,100848.62
2018-06-02T15:46:42.641Z,100848.06
2018-06-02T15:49:15.151Z,100848.41
2018-06-02T15:51:49.320Z,100852.56
2018-06-02T15:54:21.835Z,100849.61
2018-06-02T15:56:54.381Z,100853.11
2018-06-02T15:59:26.894Z,100845.80
2018-06-02T16:01:59.432Z,100849.05
2018-06-02T16:04:31.948Z,100844.25
2018-06-02T16:07:04.476Z,100844.31
2018-06-02T16:09:37.000Z,100847.69
2018-06-02T16:12:09.527Z,100844.92
2018-06-02T16:14:42.048Z,100849.30
2018-06-02T16:17:14.591Z,100857.49
2018-06-02T16:19:47.134Z,100865.55
2018-06-02T16:22:20.459Z,100857.23
2018-06-02T16:24:52.972Z,100854.87
2018-06-02T16:27:25.518Z,100857.02
2018-06-02T16:29:58.041Z,100857.95
2018-06-02T16:32:30.594Z,100851.78
2018-06-02T16:35:03.110Z,100855.33
2018-06-02T16:37:35.642Z,100857.91
2018-06-02T16:40:08.187Z,100850.63
2018-06-02T16:42:40.713Z,100848.28
2018-06-02T16:45:13.245Z,100851.33
2018-06-02T16:47:45.769Z,100848.84
2018-06-02T16:50:18.787Z,100854.52
2018-06-02T16:52:51.337Z,100860.74
2018-06-02T16:55:23.858Z,100860.08
2018-06-02T16:57:56.409Z,100861.53
2018-06-02T17:00:28.920Z,100863.17
2018-06-02T17:03:01.448Z,100875.59
2018-06-02T17:05:33.968Z,100872.34
2018-06-02T17:08:06.503Z,100862.20
2018-06-02T17:10:39.016Z,100863.42
2018-06-02T17:13:11.549Z,100876.68
2018-06-02T17:15:44.056Z,100870.34
2018-06-02T17:18:16.583Z,100877.73
2018-06-02T17:20:49.095Z,100877.66
2018-06-02T17:23:21.631Z,100881.14
2018-06-02T17:25:54.148Z,100875.47
2018-06-02T17:28:26.705Z,100878.35
2018-06-02T17:30:59.257Z,100875.55
2018-06-02T17:33:31.791Z,100873.00
2018-06-02T17:36:04.304Z,100873.45
2018-06-02T17:38:36.853Z,100873.97
2018-06-02T17:41:09.355Z,100871.95
2018-06-02T17:43:41.881Z,100862.89
2018-06-02T17:46:14.409Z,100858.02
2018-06-02T17:48:46.954Z,100864.53
2018-06-02T17:51:20.183Z,100864.12
2018-06-02T17:53:52.712Z,100865.19
2018-06-02T17:56:25.230Z,100865.60
2018-06-02T17:58:57.763Z,100856.31
2018-06-02T18:01:30.271Z,100861.88
2018-06-02T18:04:02.808Z,100867.58
2018-06-02T18:06:35.312Z,100869.66
2018-06-02T18:09:07.848Z,100873.70
2018-06-02T18:11:40.360Z,100871.27
2018-06-02T18:14:12.947Z,100874.59
2018-06-02T18:16:45.460Z,100880.98
2018-06-02T18:19:18.000Z,100886.66
2018-06-02T18:21:50.531Z,100887.41
2018-06-02T18:24:23.062Z,100886.58
2018-06-02T18:26:55.584Z,100890.00
2018-06-02T18:29:28.116Z,100896.09
2018-06-02T18:32:00.657Z,100894.49
2018-06-02T18:34:33.187Z,100895.92
2018-06-02T18:37:05.781Z,100893.80
2018-06-02T18:39:38.252Z,100893.94
2018-06-02T18:42:10.788Z,100892.38
2018-06-02T18:44:43.313Z,100898.44
2018-06-02T18:47:15.848Z,100893.77
2018-06-02T18:49:49.025Z,100893.41
2018-06-02T18:52:21.828Z,100896.37
2018-06-02T18:54:54.340Z,100910.50
2018-06-02T18:57:26.885Z,100904.27
2018-06-02T18:59:59.409Z,100905.10
2018-06-02T19:02:31.934Z,100903.00
2018-06-02T19:05:04.440Z,100898.98
2018-06-02T19:07:36.969Z,100899.92
2018-06-02T19:10:09.485Z,100901.94
2018-06-02T19:12:42.017Z,100902.11
2018-06-02T19:15:14.572Z,100903.06
2018-06-02T19:17:47.091Z,100906.25
2018-06-02T19:20:20.520Z,100904.72
2018-06-02T19:22:53.053Z,100906.02
2018-06-02T19:25:25.576Z,100907.63
2018-06-02T19:27:58.105Z,100909.06
2018-06-02T19:30:30.617Z,100904.72
2018-06-02T19:33:03.149Z,100905.61
2018-06-02T19:35:35.669Z,100914.73
2018-06-02T19:38:08.193Z,100913.90
2018-06-02T19:40:40.714Z,100914.91
2018-06-02T19:43:13.281Z,100923.66
2018-06-02T19:45:45.797Z,100924.41
2018-06-02T19:48:18.844Z,100926.42
2018-06-02T19:50:51.359Z,100925.43
2018-06-02T19:53:23.893Z,100927.33
2018-06-02T19:55:56.408Z,100922.31
2018-06-02T19:58:28.952Z,100922.73
2018-06-02T20:01:01.463Z,100922.50
2018-06-02T20:03:33.991Z,100919.13
2018-06-02T20:06:06.501Z,100918.66
2018-06-02T20:08:39.030Z,100914.52
2018-06-02T20:11:11.543Z,100915.64
2018-06-02T20:13:44.077Z,100916.35
2018-06-02T20:16:16.590Z,100914.30
2018-06-02T20:18:49.127Z,100917.73
2018-06-02T20:21:21.641Z,100920.33
2018-06-02T20:23:54.179Z,100921.21
2018-06-02T20:26:26.686Z,100920.77
2018-06-02T20:28:59.216Z,100927.71
2018-06-02T20:31:31.736Z,100914.87
2018-06-02T20:34:04.272Z,100923.45
2018-06-02T20:36:36.789Z,100921.42
2018-06-02T20:39:09.333Z,100922.02
2018-06-02T20:41:41.862Z,100918.85
2018-06-02T20:44:14.399Z,100923.56
2018-06-02T20:46:46.905Z,100930.70
2018-06-02T20:49:20.063Z,100930.23
2018-06-02T20:51:52.580Z,100925.77
2018-06-02T20:54:25.144Z,100924.94
2018-06-02T20:56:57.649Z,100931.84
2018-06-02T20:59:30.187Z,100930.52
2018-06-02T21:02:02.691Z,100930.00
2018-06-02T21:04:35.231Z,100933.54
2018-06-02T21:07:07.744Z,100934.86
2018-06-02T21:09:40.287Z,100927.95
2018-06-02T21:12:12.811Z,100929.41
2018-06-02T21:14:45.334Z,100929.83
2018-06-02T21:17:19.509Z,100926.11
2018-06-02T21:19:52.040Z,100931.36
2018-06-02T21:22:24.548Z,100933.14
2018-06-02T21:24:57.107Z,100934.73
2018-06-02T21:27:29.614Z,100933.98
2018-06-02T21:30:02.138Z,100933.73
2018-06-02T21:32:34.657Z,100935.51
2018-06-02T21:35:07.196Z,100940.76
2018-06-02T21:37:39.717Z,100937.80
2018-06-02T21:40:12.261Z,100944.83
2018-06-02T21:42:44.776Z,100937.88
2018-06-02T21:45:17.308Z,100934.91
2018-06-02T21:47:50.555Z,100937.14
2018-06-02T21:50:23.084Z,100942.66
2018-06-02T21:52:55.591Z,100945.36
2018-06-02T21:55:28.188Z,100947.48
2018-06-02T21:58:00.675Z,100947.38
2018-06-02T22:00:33.207Z,100951.38
2018-06-02T22:03:05.725Z,100949.55
2018-06-02T22:05:38.268Z,100947.07
2018-06-02T22:08:10.808Z,100945.90
2018-06-02T22:10:43.319Z,100952.86
2018-06-02T22:13:15.857Z,100952.03
2018-06-02T22:15:49.016Z,100946.88
2018-06-02T22:18:21.544Z,100957.81
2018-06-02T22:20:54.065Z,100956.30
2018-06-02T22:23:26.604Z,100954.86
2018-06-02T22:25:59.116Z,100956.57
2018-06-02T22:28:31.648Z,100955.69
2018-06-02T22:31:04.166Z,100953.14
2018-06-02T22:33:36.764Z,100953.55
2018-06-02T22:36:09.301Z,100945.91
2018-06-02T22:38:41.830Z,100950.19
2018-06-02T22:41:14.346Z,100954.34
2018-06-02T22:43:46.883Z,100948.77
2018-06-02T22:46:20.026Z,100949.19
2018-06-02T22:48:52.535Z,100955.59
2018-06-02T22:51:36.782Z,100942.33
2018-06-02T22:54:09.323Z,100945.08
2018-06-02T22:56:41.826Z,100941.95
2018-06-02T22:59:14.351Z,100941.90
2018-06-02T23:01:46.865Z,100938.42
2018-06-02T23:04:20.196Z,100940.94
2018-06-02T23:06:52.709Z,100945.25
2018-06-02T23:09:25.245Z,100944.89
2018-06-02T23:11:57.772Z,100942.70
2018-06-02T23:14:30.309Z,100945.25
2018-06-02T23:17:02.837Z,100942.47
2018-06-02T23:19:35.364Z,100945.06
2018-06-02T23:22:07.883Z,100945.06
2018-06-02T23:24:40.427Z,100949.37
2018-06-02T23:27:12.940Z,100957.30
2018-06-02T23:29:45.468Z,100956.39
2018-06-02T23:32:18.076Z,100949.44
2018-06-02T23:34:50.600Z,100951.51
2018-06-02T23:37:23.104Z,100951.85
2018-06-02T23:39:55.637Z,100952.28
2018-06-02T23:42:28.141Z,100957.41
2018-06-02T23:45:00.668Z,100959.65
2018-06-02T23:47:33.178Z,100958.34
2018-06-02T23:50:05.721Z,100956.23
2018-06-02T23:52:38.240Z,100956.66
2018-06-02T23:55:10.772Z,100964.39
2018-06-02T23:57:43.295Z,100959.41
